createdAt,value
2019-03-30T00:01:28.469Z,7.30
2019-03-30T00:03:58.286Z,7.30
2019-03-30T00:06:28.161Z,7.30
2019-03-30T00:08:58.672Z,7.20
2019-03-30T00:11:28.473Z,7.20
2019-03-30T00:13:58.276Z,7.20
2019-03-30T00:16:28.166Z,7.10
2019-03-30T00:18:57.988Z,7.10
2019-03-30T00:21:28.028Z,7.10
2019-03-30T00:23:57.854Z,7.00
2019-03-30T00:26:27.661Z,7.00
2019-03-30T00:28:57.497Z,6.90
2019-03-30T00:31:27.292Z,6.90
2019-03-30T00:33:57.141Z,6.80
2019-03-30T00:36:27.012Z,6.80
2019-03-30T00:38:56.898Z,6.70
2019-03-30T00:41:26.730Z,6.70
2019-03-30T00:43:57.229Z,6.70
2019-03-30T00:46:26.993Z,6.60
2019-03-30T00:48:57.514Z,6.60
2019-03-30T00:51:27.478Z,6.60
2019-03-30T00:53:57.357Z,6.50
2019-03-30T00:56:27.241Z,6.50
2019-03-30T00:58:56.998Z,6.50
2019-03-30T01:01:26.766Z,6.50
2019-03-30T01:03:56.598Z,6.40
2019-03-30T01:06:26.511Z,6.40
2019-03-30T01:08:56.385Z,6.40
2019-03-30T01:11:26.225Z,6.40
2019-03-30T01:13:56.046Z,6.40
2019-03-30T01:16:25.878Z,6.40
2019-03-30T01:18:55.674Z,6.30
2019-03-30T01:21:25.560Z,6.30
2019-03-30T01:23:55.330Z,6.30
2019-03-30T01:26:25.160Z,6.30
2019-03-30T01:28:55.032Z,6.20
2019-03-30T01:31:25.529Z,6.20
2019-03-30T01:33:55.423Z,6.20
2019-03-30T01:36:25.229Z,6.10
2019-03-30T01:38:54.998Z,6.10
2019-03-30T01:41:24.868Z,6.10
2019-03-30T01:43:54.638Z,6.10
2019-03-30T01:46:24.589Z,6.00
2019-03-30T01:48:54.554Z,6.00
2019-03-30T01:51:24.333Z,6.00
2019-03-30T01:53:54.106Z,6.00
2019-03-30T01:56:24.164Z,6.00
2019-03-30T01:58:53.938Z,5.90
2019-03-30T02:01:23.806Z,5.90
2019-03-30T02:03:53.601Z,5.90
2019-03-30T02:06:23.496Z,5.90
2019-03-30T02:08:53.515Z,5.80
2019-03-30T02:11:24.018Z,5.80
2019-03-30T02:13:53.815Z,5.80
2019-03-30T02:16:23.701Z,5.80
2019-03-30T02:18:53.573Z,5.80
2019-03-30T02:21:23.393Z,5.80
2019-03-30T02:23:53.193Z,5.70
2019-03-30T02:26:23.074Z,5.70
2019-03-30T02:28:53.037Z,5.80
2019-03-30T02:31:22.959Z,5.70
2019-03-30T02:33:52.727Z,5.70
2019-03-30T02:36:22.705Z,5.70
2019-03-30T02:38:52.562Z,5.70
2019-03-30T02:41:22.399Z,5.70
2019-03-30T02:43:52.167Z,5.70
2019-03-30T02:46:21.934Z,5.60
2019-03-30T02:48:51.966Z,5.70
2019-03-30T02:51:22.827Z,5.60
2019-03-30T02:53:52.722Z,5.60
2019-03-30T02:56:22.938Z,5.60
2019-03-30T02:58:52.703Z,5.60
2019-03-30T03:01:22.619Z,5.50
2019-03-30T03:03:52.565Z,5.50
2019-03-30T03:06:22.695Z,5.50
2019-03-30T03:08:52.490Z,5.50
2019-03-30T03:11:22.344Z,5.50
2019-03-30T03:13:52.159Z,5.50
2019-03-30T03:16:22.070Z,5.50
2019-03-30T03:18:52.014Z,5.40
2019-03-30T03:21:21.824Z,5.40
2019-03-30T03:23:51.791Z,5.40
2019-03-30T03:26:21.708Z,5.40
2019-03-30T03:28:51.578Z,5.40
2019-03-30T03:31:21.368Z,5.40
2019-03-30T03:33:51.171Z,5.40
2019-03-30T03:36:20.988Z,5.30
2019-03-30T03:38:50.800Z,5.30
2019-03-30T03:41:21.473Z,5.30
2019-03-30T03:43:52.215Z,5.30
2019-03-30T03:46:22.109Z,5.30
2019-03-30T03:48:51.872Z,5.30
2019-03-30T03:51:26.222Z,5.20
2019-03-30T03:53:54.674Z,5.20
2019-03-30T03:56:26.969Z,5.20
2019-03-30T03:58:57.430Z,5.10
2019-03-30T04:01:27.952Z,5.10
2019-03-30T04:03:59.499Z,5.10
2019-03-30T04:06:32.361Z,5.10
2019-03-30T04:09:04.624Z,5.10
2019-03-30T04:11:37.250Z,5.00
2019-03-30T04:14:09.236Z,5.00
2019-03-30T04:16:39.118Z,5.00
2019-03-30T04:19:09.049Z,5.00
2019-03-30T04:21:44.414Z,4.90
2019-03-30T04:24:10.516Z,4.90
2019-03-30T04:26:40.286Z,4.90
2019-03-30T04:29:10.249Z,4.90
2019-03-30T04:31:40.341Z,4.90
2019-03-30T04:34:10.314Z,4.90
2019-03-30T04:36:40.130Z,4.90
2019-03-30T04:39:10.050Z,4.80
2019-03-30T04:41:40.828Z,4.90
2019-03-30T04:44:11.438Z,4.80
2019-03-30T04:46:42.405Z,4.80
2019-03-30T04:49:12.633Z,4.80
2019-03-30T04:51:56.595Z,4.80
2019-03-30T04:54:14.497Z,4.80
2019-03-30T04:56:44.490Z,4.70
2019-03-30T04:59:14.529Z,4.70
2019-03-30T05:01:44.405Z,4.70
2019-03-30T05:04:14.372Z,4.70
2019-03-30T05:06:44.159Z,4.70
2019-03-30T05:09:13.963Z,4.70
2019-03-30T05:11:43.782Z,4.70
2019-03-30T05:14:13.536Z,4.70
2019-03-30T05:16:43.830Z,4.70
2019-03-30T05:19:13.651Z,4.70
2019-03-30T05:21:44.321Z,4.80
2019-03-30T05:24:14.125Z,4.80
2019-03-30T05:26:44.087Z,4.80
2019-03-30T05:29:13.902Z,4.90
2019-03-30T05:31:43.718Z,5.00
2019-03-30T05:34:13.521Z,5.00
2019-03-30T05:36:43.415Z,5.10
2019-03-30T05:39:13.169Z,5.30
2019-03-30T05:41:42.974Z,5.60
2019-03-30T05:44:12.741Z,5.90
2019-03-30T05:46:42.558Z,6.30
2019-03-30T05:49:12.439Z,6.70
2019-03-30T05:51:42.326Z,7.10
2019-03-30T05:54:12.303Z,7.50
2019-03-30T05:56:42.079Z,7.90
2019-03-30T05:59:12.054Z,8.40
2019-03-30T06:01:41.849Z,8.90
2019-03-30T06:04:11.846Z,9.40
2019-03-30T06:06:41.746Z,9.90
2019-03-30T06:09:11.544Z,10.40
2019-03-30T06:11:41.324Z,10.90
2019-03-30T06:14:11.097Z,11.40
2019-03-30T06:16:41.666Z,11.90
2019-03-30T06:19:11.627Z,12.40
2019-03-30T06:21:41.588Z,12.90
2019-03-30T06:24:11.413Z,13.40
2019-03-30T06:26:41.181Z,13.90
2019-03-30T06:29:10.961Z,14.40
2019-03-30T06:31:40.777Z,14.90
2019-03-30T06:34:10.695Z,15.40
2019-03-30T06:36:40.522Z,15.90
2019-03-30T06:39:10.302Z,16.30
2019-03-30T06:41:40.084Z,16.80
2019-03-30T06:44:09.984Z,17.20
2019-03-30T06:46:39.829Z,17.60
2019-03-30T06:49:09.654Z,18.10
2019-03-30T06:51:39.466Z,18.50
2019-03-30T06:54:09.236Z,19.00
2019-03-30T06:56:39.105Z,19.40
2019-03-30T06:59:08.924Z,19.90
2019-03-30T07:01:39.185Z,20.30
2019-03-30T07:04:11.292Z,20.70
2019-03-30T07:06:40.982Z,21.10
2019-03-30T07:09:11.587Z,21.50
2019-03-30T07:11:42.835Z,21.80
2019-03-30T07:14:12.981Z,22.20
2019-03-30T07:16:42.754Z,22.50
2019-03-30T07:19:13.550Z,22.80
2019-03-30T07:21:43.490Z,23.10
2019-03-30T07:24:13.322Z,23.30
2019-03-30T07:26:43.073Z,23.60
2019-03-30T07:29:13.022Z,23.80
2019-03-30T07:31:42.798Z,24.00
2019-03-30T07:34:12.568Z,24.20
2019-03-30T07:36:42.431Z,24.30
2019-03-30T07:39:12.204Z,24.40
2019-03-30T07:41:42.114Z,24.50
2019-03-30T07:44:12.085Z,24.70
2019-03-30T07:46:41.865Z,24.80
2019-03-30T07:49:11.900Z,24.80
2019-03-30T07:51:42.694Z,24.80
2019-03-30T07:54:12.506Z,24.80
2019-03-30T07:56:42.332Z,24.70
2019-03-30T07:59:12.140Z,24.70
2019-03-30T08:01:41.950Z,24.70
2019-03-30T08:04:11.914Z,24.60
2019-03-30T08:06:41.726Z,24.60
2019-03-30T08:09:11.903Z,24.60
2019-03-30T08:11:42.125Z,24.60
2019-03-30T08:14:12.018Z,24.60
2019-03-30T08:16:41.865Z,24.80
2019-03-30T08:19:11.645Z,24.90
2019-03-30T08:21:41.409Z,25.00
2019-03-30T08:24:11.282Z,25.10
2019-03-30T08:26:41.172Z,25.20
2019-03-30T08:29:10.963Z,25.30
2019-03-30T08:31:40.807Z,25.30
2019-03-30T08:34:11.521Z,25.40
2019-03-30T08:36:41.408Z,25.60
2019-03-30T08:39:11.262Z,25.70
2019-03-30T08:41:41.085Z,25.80
2019-03-30T08:44:10.993Z,25.70
2019-03-30T08:46:40.800Z,25.70
2019-03-30T08:49:10.862Z,25.80
2019-03-30T08:51:40.638Z,25.80
2019-03-30T08:54:10.409Z,26.00
2019-03-30T08:56:40.366Z,26.10
2019-03-30T08:59:10.180Z,26.20
2019-03-30T09:01:40.089Z,26.20
2019-03-30T09:04:09.972Z,26.40
2019-03-30T09:06:39.879Z,26.50
2019-03-30T09:09:09.682Z,26.60
2019-03-30T09:11:39.629Z,26.60
2019-03-30T09:14:09.452Z,26.60
2019-03-30T09:16:39.422Z,26.60
2019-03-30T09:19:09.992Z,26.40
2019-03-30T09:21:39.817Z,26.20
2019-03-30T09:24:10.576Z,26.10
2019-03-30T09:26:40.470Z,26.00
2019-03-30T09:29:10.318Z,25.90
2019-03-30T09:31:40.201Z,25.70
2019-03-30T09:34:10.058Z,25.50
2019-03-30T09:36:39.987Z,25.20
2019-03-30T09:39:10.332Z,25.10
2019-03-30T09:41:40.142Z,24.70
2019-03-30T09:44:09.970Z,24.30
2019-03-30T09:46:39.937Z,24.00
2019-03-30T09:49:09.961Z,23.70
2019-03-30T09:51:39.921Z,23.40
2019-03-30T09:54:23.181Z,23.20
2019-03-30T09:56:41.565Z,23.00
2019-03-30T09:59:11.664Z,22.80
2019-03-30T10:01:42.682Z,22.70
2019-03-30T10:04:12.569Z,22.60
2019-03-30T10:06:42.330Z,22.50
2019-03-30T10:09:12.310Z,22.50
2019-03-30T10:11:42.273Z,22.50
2019-03-30T10:14:12.249Z,22.40
2019-03-30T10:16:42.117Z,22.30
2019-03-30T10:19:11.936Z,22.20
2019-03-30T10:21:41.723Z,22.10
2019-03-30T10:24:11.500Z,21.90
2019-03-30T10:26:41.370Z,21.80
2019-03-30T10:29:11.144Z,21.60
2019-03-30T10:31:41.242Z,21.50
2019-03-30T10:34:11.094Z,21.40
2019-03-30T10:36:40.870Z,21.30
2019-03-30T10:39:10.632Z,21.10
2019-03-30T10:41:40.464Z,21.00
2019-03-30T10:44:10.281Z,21.00
2019-03-30T10:46:40.439Z,20.90
2019-03-30T10:49:10.201Z,20.90
2019-03-30T10:51:40.092Z,20.90
2019-03-30T10:54:10.078Z,20.90
2019-03-30T10:56:41.645Z,20.90
2019-03-30T10:59:11.618Z,20.90
2019-03-30T11:01:41.445Z,20.90
2019-03-30T11:04:11.437Z,21.00
2019-03-30T11:06:41.261Z,21.00
2019-03-30T11:09:11.038Z,21.00
2019-03-30T11:11:40.823Z,21.00
2019-03-30T11:14:10.648Z,21.00
2019-03-30T11:16:40.617Z,21.00
2019-03-30T11:19:10.508Z,21.00
2019-03-30T11:21:40.357Z,20.90
2019-03-30T11:24:10.349Z,21.00
2019-03-30T11:26:40.263Z,21.00
2019-03-30T11:29:10.084Z,21.00
2019-03-30T11:31:39.905Z,21.00
2019-03-30T11:34:09.728Z,21.10
2019-03-30T11:36:39.493Z,21.10
2019-03-30T11:39:09.523Z,21.20
2019-03-30T11:41:39.402Z,21.20
2019-03-30T11:44:09.374Z,21.20
2019-03-30T11:46:40.318Z,21.30
2019-03-30T11:49:10.097Z,21.30
2019-03-30T11:51:40.622Z,21.30
2019-03-30T11:54:10.536Z,21.40
2019-03-30T11:56:40.349Z,21.40
2019-03-30T11:59:10.165Z,21.50
2019-03-30T12:01:39.988Z,21.50
2019-03-30T12:04:09.877Z,21.50
2019-03-30T12:06:39.709Z,21.50
2019-03-30T12:09:09.566Z,21.50
2019-03-30T12:11:39.532Z,21.50
2019-03-30T12:14:09.545Z,21.50
2019-03-30T12:16:39.374Z,21.50
2019-03-30T12:19:09.202Z,21.40
2019-03-30T12:21:39.008Z,21.40
2019-03-30T12:24:08.979Z,21.40
2019-03-30T12:26:38.909Z,21.30
2019-03-30T12:29:08.847Z,21.40
2019-03-30T12:31:38.670Z,21.40
2019-03-30T12:34:08.642Z,21.40
2019-03-30T12:36:38.449Z,21.40
2019-03-30T12:39:08.614Z,21.40
2019-03-30T12:41:39.222Z,21.40
2019-03-30T12:44:09.114Z,21.40
2019-03-30T12:46:39.005Z,21.40
2019-03-30T12:49:08.973Z,21.40
2019-03-30T12:51:39.454Z,21.40
2019-03-30T12:54:09.234Z,21.40
2019-03-30T12:56:39.041Z,21.40
2019-03-30T12:59:08.904Z,21.50
2019-03-30T13:01:38.733Z,21.50
2019-03-30T13:04:08.791Z,21.50
2019-03-30T13:06:38.686Z,21.50
2019-03-30T13:09:08.649Z,21.50
2019-03-30T13:11:38.475Z,21.50
2019-03-30T13:14:08.378Z,21.40
2019-03-30T13:16:38.369Z,21.40
2019-03-30T13:19:08.283Z,21.40
2019-03-30T13:21:51.839Z,21.30
2019-03-30T13:24:09.637Z,21.30
2019-03-30T13:26:39.438Z,21.30
2019-03-30T13:29:10.142Z,21.30
2019-03-30T13:31:40.249Z,21.30
2019-03-30T13:34:10.149Z,21.30
2019-03-30T13:36:41.601Z,21.30
2019-03-30T13:39:11.720Z,21.30
2019-03-30T13:41:41.480Z,21.30
2019-03-30T13:44:11.420Z,21.20
2019-03-30T13:46:41.322Z,21.20
2019-03-30T13:49:11.094Z,21.20
2019-03-30T13:51:40.871Z,21.20
2019-03-30T13:54:10.759Z,21.20
2019-03-30T13:56:40.712Z,21.20
2019-03-30T13:59:10.994Z,21.30
2019-03-30T14:01:40.817Z,21.30
2019-03-30T14:04:11.358Z,21.30
2019-03-30T14:06:41.125Z,21.30
2019-03-30T14:09:10.897Z,21.30
2019-03-30T14:11:41.066Z,21.30
2019-03-30T14:14:10.891Z,21.30
2019-03-30T14:16:41.144Z,21.30
2019-03-30T14:19:11.005Z,21.30
2019-03-30T14:21:40.813Z,21.20
2019-03-30T14:24:10.589Z,21.20
2019-03-30T14:26:40.835Z,21.20
2019-03-30T14:29:10.600Z,21.30
2019-03-30T14:31:40.383Z,21.20
2019-03-30T14:34:10.353Z,21.30
2019-03-30T14:36:40.169Z,21.30
2019-03-30T14:39:09.968Z,21.30
2019-03-30T14:41:40.481Z,21.30
2019-03-30T14:44:10.288Z,21.30
2019-03-30T14:46:40.150Z,21.30
2019-03-30T14:49:10.314Z,21.30
2019-03-30T14:51:40.904Z,21.20
2019-03-30T14:54:10.694Z,21.20
2019-03-30T14:56:45.911Z,21.10
2019-03-30T14:59:14.462Z,21.10
2019-03-30T15:01:43.844Z,21.10
2019-03-30T15:04:13.737Z,21.10
2019-03-30T15:06:43.618Z,21.10
2019-03-30T15:09:13.455Z,21.10
2019-03-30T15:11:43.337Z,21.10
2019-03-30T15:14:13.139Z,21.00
2019-03-30T15:16:43.800Z,21.00
2019-03-30T15:19:13.742Z,21.00
2019-03-30T15:21:43.566Z,21.00
2019-03-30T15:24:13.353Z,21.00
2019-03-30T15:26:43.440Z,21.00
2019-03-30T15:29:13.209Z,20.90
2019-03-30T15:31:42.986Z,20.90
2019-03-30T15:34:13.876Z,20.90
2019-03-30T15:36:43.632Z,20.80
2019-03-30T15:39:13.405Z,20.80
2019-03-30T15:41:43.502Z,20.80
2019-03-30T15:44:13.278Z,20.80
2019-03-30T15:46:44.074Z,20.70
2019-03-30T15:49:14.162Z,20.70
2019-03-30T15:51:44.082Z,20.70
2019-03-30T15:54:13.862Z,20.70
2019-03-30T15:56:43.675Z,20.70
2019-03-30T15:59:13.569Z,20.70
2019-03-30T16:01:43.354Z,20.60
2019-03-30T16:04:13.181Z,20.60
2019-03-30T16:06:43.291Z,20.60
2019-03-30T16:09:13.318Z,20.50
2019-03-30T16:11:43.132Z,20.50
2019-03-30T16:14:13.914Z,20.40
2019-03-30T16:16:43.673Z,20.40
2019-03-30T16:19:13.644Z,20.30
2019-03-30T16:21:44.219Z,20.30
2019-03-30T16:24:15.051Z,20.20
2019-03-30T16:26:45.014Z,20.20
2019-03-30T16:29:14.962Z,20.10
2019-03-30T16:31:45.014Z,20.10
2019-03-30T16:34:15.004Z,20.00
2019-03-30T16:36:45.760Z,20.00
2019-03-30T16:39:15.528Z,19.90
2019-03-30T16:41:45.482Z,19.90
2019-03-30T16:44:15.336Z,19.80
2019-03-30T16:46:45.106Z,19.80
2019-03-30T16:49:14.887Z,19.70
2019-03-30T16:51:44.854Z,19.60
2019-03-30T16:54:14.770Z,19.60
2019-03-30T16:56:44.542Z,19.50
2019-03-30T16:59:14.318Z,19.50
2019-03-30T17:01:44.135Z,19.40
2019-03-30T17:04:13.965Z,19.30
2019-03-30T17:06:43.898Z,19.30
2019-03-30T17:09:13.712Z,19.20
2019-03-30T17:11:43.473Z,19.10
2019-03-30T17:14:13.526Z,19.00
2019-03-30T17:16:43.347Z,18.90
2019-03-30T17:19:14.210Z,18.90
2019-03-30T17:21:44.386Z,18.70
2019-03-30T17:24:15.322Z,18.70
2019-03-30T17:26:45.356Z,18.60
2019-03-30T17:29:16.137Z,18.60
2019-03-30T17:31:45.910Z,18.50
2019-03-30T17:34:15.682Z,18.40
2019-03-30T17:36:45.670Z,18.30
2019-03-30T17:39:15.648Z,18.20
2019-03-30T17:41:45.588Z,18.10
2019-03-30T17:44:15.481Z,18.10
2019-03-30T17:46:45.561Z,17.90
2019-03-30T17:49:15.367Z,17.80
2019-03-30T17:51:45.396Z,17.70
2019-03-30T17:54:15.264Z,17.60
2019-03-30T17:56:46.090Z,17.50
2019-03-30T17:59:16.002Z,17.40
2019-03-30T18:01:45.857Z,17.30
2019-03-30T18:04:15.724Z,17.10
2019-03-30T18:06:45.504Z,17.00
2019-03-30T18:09:15.406Z,16.90
2019-03-30T18:11:45.215Z,16.80
2019-03-30T18:14:14.991Z,16.70
2019-03-30T18:16:44.887Z,16.60
2019-03-30T18:19:14.868Z,16.40
2019-03-30T18:21:44.688Z,16.30
2019-03-30T18:24:14.457Z,16.20
2019-03-30T18:26:44.276Z,16.10
2019-03-30T18:29:14.518Z,15.90
2019-03-30T18:31:44.807Z,15.80
2019-03-30T18:34:15.927Z,15.70
2019-03-30T18:36:47.081Z,15.60
2019-03-30T18:39:17.083Z,15.40
2019-03-30T18:41:46.930Z,15.30
2019-03-30T18:44:17.306Z,15.20
2019-03-30T18:46:47.257Z,15.00
2019-03-30T18:49:17.973Z,15.00
2019-03-30T18:51:49.509Z,14.90
2019-03-30T18:54:20.442Z,14.80
2019-03-30T18:56:50.257Z,14.70
2019-03-30T18:59:20.436Z,14.60
2019-03-30T19:01:50.263Z,14.50
2019-03-30T19:04:20.149Z,14.40
2019-03-30T19:06:51.045Z,14.30
2019-03-30T19:09:20.861Z,14.20
2019-03-30T19:11:50.634Z,14.10
2019-03-30T19:14:20.406Z,14.00
2019-03-30T19:16:50.422Z,13.90
2019-03-30T19:19:20.225Z,13.80
2019-03-30T19:21:51.291Z,13.70
2019-03-30T19:24:21.064Z,13.60
2019-03-30T19:26:50.847Z,13.60
2019-03-30T19:29:20.799Z,13.50
2019-03-30T19:31:50.560Z,13.50
2019-03-30T19:34:20.440Z,13.40
2019-03-30T19:36:50.414Z,13.30
2019-03-30T19:39:20.474Z,13.30
2019-03-30T19:41:50.551Z,13.20
2019-03-30T19:44:20.333Z,13.20
2019-03-30T19:46:50.423Z,13.20
2019-03-30T19:49:20.628Z,13.10
2019-03-30T19:51:50.592Z,13.10
2019-03-30T19:54:20.445Z,13.00
2019-03-30T19:56:50.228Z,13.00
2019-03-30T19:59:20.049Z,12.90
2019-03-30T20:01:50.842Z,12.90
2019-03-30T20:04:20.810Z,12.80
2019-03-30T20:06:50.780Z,12.70
2019-03-30T20:09:21.036Z,12.70
2019-03-30T20:11:51.025Z,12.60
2019-03-30T20:14:20.834Z,12.50
2019-03-30T20:16:50.653Z,12.50
2019-03-30T20:19:20.529Z,12.40
2019-03-30T20:21:50.347Z,12.30
2019-03-30T20:24:20.474Z,12.30
2019-03-30T20:26:50.277Z,12.20
2019-03-30T20:29:25.656Z,12.10
2019-03-30T20:31:51.717Z,12.10
2019-03-30T20:34:21.491Z,12.00
2019-03-30T20:36:51.274Z,12.00
2019-03-30T20:39:21.232Z,12.00
2019-03-30T20:41:51.037Z,11.90
2019-03-30T20:44:20.805Z,11.90
2019-03-30T20:46:50.614Z,11.80
2019-03-30T20:49:20.777Z,11.70
2019-03-30T20:51:50.710Z,11.70
2019-03-30T20:54:20.524Z,11.60
2019-03-30T20:56:50.398Z,11.50
2019-03-30T20:59:20.961Z,11.50
2019-03-30T21:01:51.115Z,11.40
2019-03-30T21:04:20.941Z,11.40
2019-03-30T21:06:50.789Z,11.30
2019-03-30T21:09:20.690Z,11.20
2019-03-30T21:11:50.470Z,11.20
2019-03-30T21:14:20.241Z,11.10
2019-03-30T21:16:51.142Z,11.10
2019-03-30T21:19:21.734Z,11.00
2019-03-30T21:21:51.583Z,11.00
2019-03-30T21:24:21.406Z,10.90
2019-03-30T21:26:51.197Z,10.90
2019-03-30T21:29:21.225Z,10.80
2019-03-30T21:31:51.056Z,10.80
2019-03-30T21:34:20.855Z,10.80
2019-03-30T21:36:50.678Z,10.80
2019-03-30T21:39:20.555Z,10.70
2019-03-30T21:41:50.452Z,10.70
2019-03-30T21:44:22.367Z,10.70
2019-03-30T21:46:51.887Z,10.60
2019-03-30T21:49:21.772Z,10.60
2019-03-30T21:51:51.610Z,10.50
2019-03-30T21:54:21.509Z,10.50
2019-03-30T21:56:51.526Z,10.50
2019-03-30T21:59:21.343Z,10.40
2019-03-30T22:01:51.113Z,10.40
2019-03-30T22:04:20.997Z,10.30
2019-03-30T22:06:50.902Z,10.30
2019-03-30T22:09:20.709Z,10.20
2019-03-30T22:11:50.487Z,10.20
2019-03-30T22:14:20.340Z,10.20
2019-03-30T22:16:50.247Z,10.10
2019-03-30T22:19:20.024Z,10.10
2019-03-30T22:21:49.892Z,10.00
2019-03-30T22:24:19.785Z,10.00
2019-03-30T22:26:49.680Z,9.90
2019-03-30T22:29:19.835Z,9.90
2019-03-30T22:31:49.636Z,9.90
2019-03-30T22:34:19.405Z,9.80
2019-03-30T22:36:49.364Z,9.80
2019-03-30T22:39:19.225Z,9.70
2019-03-30T22:41:49.741Z,9.70
2019-03-30T22:44:19.725Z,9.70
2019-03-30T22:46:49.914Z,9.60
2019-03-30T22:49:19.712Z,9.60
2019-03-30T22:51:49.606Z,9.60
2019-03-30T22:54:19.420Z,9.50
2019-03-30T22:56:49.212Z,9.50
2019-03-30T22:59:19.021Z,9.50
2019-03-30T23:01:49.029Z,9.40
2019-03-30T23:04:18.833Z,9.30
2019-03-30T23:06:48.601Z,9.30
2019-03-30T23:09:18.489Z,9.20
2019-03-30T23:11:48.294Z,9.20
2019-03-30T23:14:18.497Z,9.10
2019-03-30T23:16:48.466Z,9.10
2019-03-30T23:19:18.542Z,9.00
2019-03-30T23:21:48.342Z,9.00
2019-03-30T23:24:18.229Z,9.00
2019-03-30T23:26:48.162Z,8.90
2019-03-30T23:29:18.006Z,8.90
2019-03-30T23:31:48.882Z,8.90
2019-03-30T23:34:18.861Z,8.80
2019-03-30T23:36:48.649Z,8.80
2019-03-30T23:39:19.214Z,8.80
2019-03-30T23:41:49.012Z,8.80
2019-03-30T23:44:18.781Z,8.80
2019-03-30T23:46:48.581Z,8.70
2019-03-30T23:49:18.510Z,8.70
2019-03-30T23:51:48.669Z,8.60
2019-03-30T23:54:18.442Z,8.60
2019-03-30T23:56:49.223Z,8.50
2019-03-30T23:59:19.046Z,8.40
